This is the latest recevied weather packets stored in our database for station/object SR4DIG-13. If no packets are shown the sender has not sent any weather packets the latest 10 day(s).
| Time | Temp. | Humidity | Pressure | Rain* | Wind** | Luminosity | Snow |
|---|---|---|---|---|---|---|---|
| 1788263873 | 23.89° C | 50% | 1011.8 hPa | 0 mm | - | - | - |
| 1788263572 | 25° C | 49% | 1011.8 hPa | 0 mm | - | - | - |
| 1788263272 | 24.44° C | 49% | 1011.8 hPa | 0 mm | - | - | - |
| 1788262971 | 24.44° C | 48% | 1011.9 hPa | 0 mm | - | - | - |
| 1788262669 | 26.67° C | 45% | 1011.9 hPa | 0 mm | - | - | - |
| 1788261795 | 26.67° C | 46% | 1011.8 hPa | 0 mm | - | - | - |
| 1788261495 | 26.11° C | 48% | 1011.7 hPa | 0 mm | - | - | - |
| 1788261194 | 25.56° C | 48% | 1011.8 hPa | 0 mm | - | - | - |
| 1788260893 | 26.11° C | 46% | 1011.8 hPa | 0 mm | - | - | - |
| 1788260592 | 28.33° C | 44% | 1011.8 hPa | 0 mm | - | - | - |
| 1788260291 | 27.78° C | 46% | 1011.7 hPa | 0 mm | - | - | - |
| 1788259990 | 26.67° C | 48% | 1011.8 hPa | 0 mm | - | - | - |
| 1788259689 | 27.22° C | 47% | 1011.8 hPa | 0 mm | - | - | - |
| 1788259389 | 26.11° C | 48% | 1011.7 hPa | 0 mm | - | - | - |
| 1788259088 | 25° C | 52% | 1011.7 hPa | 0 mm | - | - | - |
| 1788258786 | 25° C | 51% | 1011.7 hPa | 0 mm | - | - | - |
| 1788258486 | 25° C | 51% | 1011.7 hPa | 0 mm | - | - | - |
| 1788258185 | 25.56° C | 52% | 1011.7 hPa | 0 mm | - | - | - |
| 1788257884 | 24.44° C | 53% | 1011.7 hPa | 0 mm | - | - | - |
| 1788257583 | 25° C | 52% | 1011.7 hPa | 0 mm | - | - | - |
| 1788257282 | 26.11° C | 49% | 1011.7 hPa | 0 mm | - | - | - |
| 1788256981 | 27.78° C | 46% | 1011.6 hPa | 0 mm | - | - | - |
| 1788256680 | 28.33° C | 49% | 1011.7 hPa | 0 mm | - | - | - |
| 1788256379 | 29.44° C | 48% | 1011.6 hPa | 0 mm | - | - | - |
| 1788255781 | 29.44° C | 50% | 1011.6 hPa | 0 mm | - | - | - |
* Rain latest hour (hover to see other rain measurements)
** Current wind speed in m/s (hover to see current wind gust speed)